createdAt,value
2023-02-11T00:00:41.974Z,26.8
2023-02-11T00:06:47.553Z,26.7
2023-02-11T00:12:53.324Z,26.8
2023-02-11T00:18:59.297Z,26.7
2023-02-11T00:25:05.262Z,26.7
2023-02-11T00:31:11.330Z,26.7
2023-02-11T00:37:17.436Z,26.7
2023-02-11T00:43:23.141Z,26.7
2023-02-11T00:49:28.919Z,26.7
2023-02-11T00:55:34.148Z,26.6
2023-02-11T01:01:40.155Z,26.6
2023-02-11T01:07:46.252Z,26.8
2023-02-11T01:13:51.824Z,26.6
2023-02-11T01:19:57.607Z,26.6
2023-02-11T01:26:03.258Z,26.7
2023-02-11T01:32:09.293Z,26.7
2023-02-11T01:38:15.202Z,26.6
2023-02-11T01:44:21.505Z,26.6
2023-02-11T01:50:27.180Z,26.5
2023-02-11T01:56:33.338Z,26.6
2023-02-11T02:02:39.109Z,26.5
2023-02-11T02:08:45.093Z,26.6
2023-02-11T02:14:50.833Z,26.5
2023-02-11T02:20:56.387Z,26.5
2023-02-11T02:27:01.962Z,26.5
2023-02-11T02:33:25.363Z,26.5
2023-02-11T02:39:31.512Z,26.4
2023-02-11T02:45:37.588Z,26.4
2023-02-11T02:51:43.338Z,26.4
2023-02-11T02:57:48.852Z,26.4
2023-02-11T03:03:54.658Z,26.4
2023-02-11T03:10:00.816Z,26.5
2023-02-11T03:16:07.518Z,26.4
2023-02-11T03:22:13.381Z,26.4
2023-02-11T03:28:19.159Z,26.3
2023-02-11T03:34:25.000Z,26.2
2023-02-11T03:40:30.999Z,26.2
2023-02-11T03:46:36.801Z,26.2
2023-02-11T03:52:42.554Z,26.3
2023-02-11T03:58:48.350Z,26.2
2023-02-11T04:04:54.356Z,26.2
2023-02-11T04:11:00.110Z,26.1
2023-02-11T04:17:06.204Z,26.2
2023-02-11T04:23:12.186Z,26.2
2023-02-11T04:29:18.170Z,26.1
2023-02-11T04:35:23.948Z,26.1
2023-02-11T04:41:29.716Z,26.1
2023-02-11T04:47:35.297Z,26.1
2023-02-11T04:53:40.867Z,26.2
2023-02-11T04:59:46.430Z,26.1
2023-02-11T05:05:53.372Z,26.1
2023-02-11T05:11:59.426Z,26.1
2023-02-11T05:18:05.423Z,26
2023-02-11T05:24:11.665Z,26
2023-02-11T05:30:17.831Z,26.1
2023-02-11T05:36:23.645Z,26
2023-02-11T05:42:28.990Z,26.1
2023-02-11T05:48:34.557Z,26.1
2023-02-11T05:54:39.665Z,26.1
2023-02-11T06:00:45.090Z,26.2
2023-02-11T06:06:51.068Z,26.1
2023-02-11T06:12:56.843Z,26.1
2023-02-11T06:19:02.442Z,26
2023-02-11T06:25:08.208Z,26
2023-02-11T06:31:14.031Z,26.1
2023-02-11T06:37:20.177Z,26
2023-02-11T06:43:26.165Z,26.1
2023-02-11T06:49:31.926Z,26.4
2023-02-11T06:55:37.704Z,26.1
2023-02-11T07:01:43.431Z,26.1
2023-02-11T07:07:48.850Z,26
2023-02-11T07:13:54.617Z,26
2023-02-11T07:20:00.512Z,26
2023-02-11T07:26:06.604Z,26.1
2023-02-11T07:32:13.114Z,26.2
2023-02-11T07:38:19.086Z,26
2023-02-11T07:44:24.701Z,26.2
2023-02-11T07:50:30.484Z,26.2
2023-02-11T07:56:36.305Z,26.1
2023-02-11T08:02:41.862Z,26.3
2023-02-11T08:08:47.338Z,26.2
2023-02-11T08:14:53.124Z,26.2
2023-02-11T08:20:59.106Z,26.1
2023-02-11T08:27:05.100Z,26.3
2023-02-11T08:33:10.854Z,26.1
2023-02-11T08:39:23.170Z,26.2
2023-02-11T08:45:28.760Z,26.2
2023-02-11T08:51:34.752Z,26.1
2023-02-11T08:57:40.120Z,26.1
2023-02-11T09:03:45.884Z,26.2
2023-02-11T09:09:51.668Z,26.4
2023-02-11T09:15:57.652Z,26.2
2023-02-11T09:22:03.310Z,26.3
2023-02-11T09:28:09.333Z,26.3
2023-02-11T09:34:15.574Z,26.2
2023-02-11T09:40:22.414Z,26.2
2023-02-11T09:46:28.393Z,26.3
2023-02-11T09:52:33.602Z,26.1
2023-02-11T09:58:39.586Z,26.4
2023-02-11T10:04:45.586Z,26.4
2023-02-11T10:10:52.161Z,26.1
2023-02-11T10:16:58.135Z,26.2
2023-02-11T10:23:03.507Z,26.3
2023-02-11T10:29:09.816Z,26.3
2023-02-11T10:35:15.881Z,26.2
2023-02-11T10:41:20.848Z,26.2
2023-02-11T10:47:26.621Z,26.2
2023-02-11T10:53:32.588Z,26.2
2023-02-11T10:59:38.697Z,26.4
2023-02-11T11:05:44.586Z,26.4
2023-02-11T11:11:50.571Z,26.1
2023-02-11T11:18:21.194Z,26.1
2023-02-11T11:24:29.726Z,26
2023-02-11T11:30:35.660Z,26.1
2023-02-11T11:36:42.034Z,26
2023-02-11T11:42:47.950Z,25.9
2023-02-11T11:48:53.258Z,26
2023-02-11T11:54:58.849Z,25.9
2023-02-11T12:01:04.732Z,25.9
2023-02-11T12:07:10.603Z,26.1
2023-02-11T12:13:16.771Z,25.8
2023-02-11T12:19:22.758Z,25.8
2023-02-11T12:25:28.919Z,25.9
2023-02-11T12:31:34.950Z,25.8
2023-02-11T12:37:41.436Z,25.9
2023-02-11T12:43:47.224Z,25.9
2023-02-11T12:49:53.798Z,25.9
2023-02-11T12:55:59.603Z,26
2023-02-11T13:02:05.591Z,25.8
2023-02-11T13:08:11.762Z,25.7
2023-02-11T13:14:17.866Z,25.7
2023-02-11T13:20:23.761Z,25.8
2023-02-11T13:26:29.707Z,25.7
2023-02-11T13:32:35.901Z,25.7
2023-02-11T13:38:41.458Z,25.6
2023-02-11T13:44:47.644Z,25.6
2023-02-11T13:50:54.267Z,25.7
2023-02-11T13:56:59.809Z,25.6
2023-02-11T14:03:05.596Z,25.7
2023-02-11T14:09:11.777Z,25.7
2023-02-11T14:15:17.752Z,25.7
2023-02-11T14:21:23.544Z,25.7
2023-02-11T14:27:29.580Z,25.7
2023-02-11T14:33:35.902Z,25.7
2023-02-11T14:39:42.155Z,25.8
2023-02-11T14:45:48.347Z,25.6
2023-02-11T14:51:54.465Z,25.7
2023-02-11T14:58:00.861Z,25.7
2023-02-11T15:04:06.318Z,25.8
2023-02-11T15:10:12.296Z,25.7
2023-02-11T15:16:18.458Z,25.8
2023-02-11T15:22:24.769Z,25.8
2023-02-11T15:28:31.119Z,25.8
2023-02-11T15:34:37.270Z,25.8
2023-02-11T15:40:43.338Z,25.9
2023-02-11T15:46:49.542Z,25.8
2023-02-11T15:52:55.574Z,25.9
2023-02-11T15:59:01.306Z,26
2023-02-11T16:05:07.481Z,26
2023-02-11T16:11:13.245Z,26.2
2023-02-11T16:17:19.031Z,26.1
2023-02-11T16:23:25.199Z,26.2
2023-02-11T16:29:31.600Z,26.2
2023-02-11T16:35:37.382Z,26.3
2023-02-11T16:41:42.952Z,26.4
2023-02-11T16:47:49.006Z,26.4
2023-02-11T16:53:54.975Z,26.5
2023-02-11T17:00:01.020Z,26.6
2023-02-11T17:06:07.482Z,26.6
2023-02-11T17:12:13.344Z,26.6
2023-02-11T17:18:18.722Z,26.7
2023-02-11T17:24:24.876Z,26.8
2023-02-11T17:30:30.852Z,26.8
2023-02-11T17:36:36.768Z,26.9
2023-02-11T17:42:42.552Z,26.9
2023-02-11T17:48:47.925Z,26.9
2023-02-11T17:54:53.687Z,27
2023-02-11T18:01:00.335Z,27
2023-02-11T18:07:06.273Z,27.1
2023-02-11T18:13:12.009Z,27.1
2023-02-11T18:19:18.431Z,27.2
2023-02-11T18:25:23.896Z,27.2
2023-02-11T18:31:29.908Z,27.3
2023-02-11T18:37:36.175Z,27.3
2023-02-11T18:43:42.047Z,27.3
2023-02-11T18:49:47.524Z,27.4
2023-02-11T18:55:55.316Z,27.4
2023-02-11T19:02:01.542Z,27.4
2023-02-11T19:08:07.124Z,27.5
2023-02-11T19:14:13.505Z,27.5
2023-02-11T19:20:19.671Z,27.6
2023-02-11T19:26:25.872Z,27.6
2023-02-11T19:32:31.656Z,27.6
2023-02-11T19:38:37.820Z,27.6
2023-02-11T19:44:43.408Z,27.7
2023-02-11T19:50:49.605Z,27.7
2023-02-11T19:56:55.785Z,27.7
2023-02-11T20:03:02.237Z,27.7
2023-02-11T20:09:08.149Z,27.7
2023-02-11T20:15:14.134Z,27.8
2023-02-11T20:21:19.302Z,27.8
2023-02-11T20:27:25.335Z,27.8
2023-02-11T20:33:31.259Z,27.8
2023-02-11T20:39:36.828Z,27.8
2023-02-11T20:45:43.211Z,27.8
2023-02-11T20:51:48.893Z,27.9
2023-02-11T20:57:54.475Z,27.9
2023-02-11T21:04:00.394Z,27.9
2023-02-11T21:10:06.324Z,27.9
2023-02-11T21:16:12.592Z,27.9
2023-02-11T21:22:19.363Z,28
2023-02-11T21:28:25.375Z,28
2023-02-11T21:34:31.343Z,28
2023-02-11T21:40:37.039Z,28
2023-02-11T21:46:42.763Z,28
2023-02-11T21:52:48.200Z,28.1
2023-02-11T21:58:53.984Z,28.1
2023-02-11T22:04:59.604Z,28.1
2023-02-11T22:11:05.352Z,28.1
2023-02-11T22:17:11.565Z,28.1
2023-02-11T22:23:17.081Z,28.1
2023-02-11T22:29:22.859Z,28.2
2023-02-11T22:35:28.835Z,28.2
2023-02-11T22:41:34.403Z,28.2
2023-02-11T22:47:40.058Z,28.3
2023-02-11T22:53:46.041Z,28.3
2023-02-11T22:59:51.820Z,28.3
2023-02-11T23:05:58.573Z,28.3
2023-02-11T23:12:04.595Z,28.4
2023-02-11T23:18:10.296Z,28.4
2023-02-11T23:24:16.254Z,28.5
2023-02-11T23:30:22.852Z,28.5
2023-02-11T23:36:28.949Z,28.5
2023-02-11T23:42:34.626Z,28.6
2023-02-11T23:48:40.643Z,28.6
2023-02-11T23:54:46.176Z,28.6
